Time;durP1;ratioP1;P1;durP2;ratioP2;P2;SDS_P1;SDS_P2;PMS_P1;PMS_P2;Temp;Humidity;BMP_temperature;BMP_pressure;BME280_temperature;BME280_humidity;BME280_pressure;Samples;Min_cycle;Max_cycle;Signal;HPM_P1;HPM_P2
2021/12/02 08:18:05;;;;;;;2.28;0.50;;;20.00;47.20;;;;;;5110079;27;20119;-76
2021/12/02 08:20:31;;;;;;;4.03;0.50;;;20.00;48.10;;;;;;5066208;28;20715;-77
2021/12/02 08:22:58;;;;;;;0.77;0.70;;;20.10;48.60;;;;;;5065301;28;20476;-76
2021/12/02 08:25:26;;;;;;;3.90;0.80;;;20.30;48.50;;;;;;5086637;28;20044;-74
2021/12/02 08:27:53;;;;;;;;;;;20.60;48.20;;;;;;5086728;28;20044;-76
2021/12/02 08:30:25;;;;;;;1.30;0.40;;;20.80;47.40;;;;;;5088112;28;19923;-73
2021/12/02 08:32:52;;;;;;;4.25;0.43;;;20.70;47.90;;;;;;5061175;28;20145;-79
2021/12/02 08:35:18;;;;;;;3.70;0.40;;;20.70;47.90;;;;;;5055962;28;20109;-77
2021/12/02 08:37:47;;;;;;;1.83;0.50;;;20.60;47.80;;;;;;5085739;28;20051;-78
2021/12/02 08:40:16;;;;;;;0.68;0.40;;;20.50;47.80;;;;;;5082233;28;20078;-77
2021/12/02 08:42:42;;;;;;;2.63;0.38;;;20.50;47.90;;;;;;5086152;28;20487;-78
2021/12/02 08:45:11;;;;;;;1.65;0.40;;;20.50;47.80;;;;;;5080653;28;20051;-76
2021/12/02 08:47:43;;;;;;;8.68;0.57;;;20.50;47.80;;;;;;5086241;28;20135;-79
2021/12/02 08:50:11;;;;;;;3.70;0.50;;;20.50;47.90;;;;;;5083319;28;20039;-78
2021/12/02 08:52:37;;;;;;;3.43;0.50;;;20.50;48.00;;;;;;5089120;28;20044;-77
2021/12/02 08:55:04;;;;;;;1.70;0.50;;;20.50;48.20;;;;;;5101894;28;20043;-78
2021/12/02 08:57:31;;;;;;;0.77;0.40;;;20.50;48.30;;;;;;5087676;28;20044;-75
2021/12/02 08:59:57;;;;;;;3.95;0.57;;;20.50;48.40;;;;;;5092374;28;20044;-76
2021/12/02 09:02:27;;;;;;;2.50;0.40;;;20.50;48.40;;;;;;5092017;28;20070;-80
2021/12/02 09:04:54;;;;;;;3.85;0.50;;;20.50;48.40;;;;;;5096168;28;20074;-76
2021/12/02 09:07:20;;;;;;;1.55;0.70;;;20.50;48.40;;;;;;5071546;28;20051;-76
2021/12/02 09:09:45;;;;;;;6.75;0.60;;;20.50;48.40;;;;;;5092153;28;20035;-76
2021/12/02 09:12:11;;;;;;;2.60;0.50;;;20.50;48.20;;;;;;5081745;28;20043;-78
2021/12/02 09:14:37;;;;;;;2.75;0.63;;;20.50;48.10;;;;;;5085932;28;20106;-76
2021/12/02 09:17:03;;;;;;;3.55;0.50;;;20.50;48.10;;;;;;5097144;28;20064;-75
2021/12/02 09:19:29;;;;;;;1.30;0.50;;;20.50;48.10;;;;;;5097529;28;20047;-78
2021/12/02 09:21:55;;;;;;;3.08;0.60;;;20.50;48.00;;;;;;5109404;28;20047;-78
2021/12/02 09:24:20;;;;;;;4.95;0.80;;;20.50;48.00;;;;;;5096764;28;20085;-77
2021/12/02 09:26:48;;;;;;;2.15;0.70;;;20.60;48.10;;;;;;5085626;28;20067;-76
2021/12/02 09:29:16;;;;;;;1.00;0.50;;;20.60;48.20;;;;;;5075946;28;20046;-76
2021/12/02 09:31:42;;;;;;;3.13;0.63;;;20.50;48.30;;;;;;5060440;28;20405;-76
2021/12/02 09:34:07;;;;;;;3.22;0.50;;;20.60;48.40;;;;;;5070898;28;20047;-79
2021/12/02 09:36:33;;;;;;;1.42;0.80;;;20.60;48.40;;;;;;5085215;28;20044;-77
2021/12/02 09:38:59;;;;;;;0.93;0.52;;;20.60;48.50;;;;;;5083126;28;20178;-79
2021/12/02 09:41:24;;;;;;;1.90;0.60;;;20.60;48.40;;;;;;5040924;28;20079;-84
2021/12/02 09:43:50;;;;;;;2.53;0.68;;;20.60;48.60;;;;;;5068893;28;20151;-81
2021/12/02 09:46:16;;;;;;;0.80;0.60;;;20.60;48.50;;;;;;5055554;28;20044;-81
2021/12/02 09:48:42;;;;;;;1.50;0.63;;;20.60;48.50;;;;;;5068544;28;20043;-80
2021/12/02 09:51:11;;;;;;;2.00;0.57;;;20.60;48.50;;;;;;5062111;28;20040;-80
2021/12/02 09:53:48;;;;;;;;;;;20.60;48.50;;;;;;5069482;28;20408;-81
2021/12/02 09:56:19;;;;;;;2.25;0.77;;;20.60;48.20;;;;;;5071109;28;19990;-78
2021/12/02 09:58:50;;;;;;;1.73;0.60;;;20.60;48.50;;;;;;5065291;28;20612;-78
2021/12/02 10:01:35;;;;;;;4.13;0.60;;;20.60;48.50;;;;;;5070488;28;20338;-76
2021/12/02 10:04:05;;;;;;;4.47;0.70;;;20.60;48.10;;;;;;5052149;28;20044;-73
2021/12/02 10:06:53;;;;;;;3.08;0.75;;;20.60;48.20;;;;;;5070778;28;20131;-79
2021/12/02 10:09:42;;;;;;;3.05;0.70;;;20.50;48.00;;;;;;5065148;28;20032;-76
2021/12/02 10:12:19;;;;;;;1.80;0.80;;;20.60;48.00;;;;;;5051468;28;20482;-77
2021/12/02 10:14:56;;;;;;;2.65;0.77;;;20.50;47.90;;;;;;5087218;28;20052;-78
2021/12/02 10:17:46;;;;;;;1.55;0.70;;;20.50;47.60;;;;;;5069715;28;20537;-80
2021/12/02 10:20:37;;;;;;;2.58;0.80;;;20.50;47.60;;;;;;5086404;28;20411;-81
2021/12/02 10:23:28;;;;;;;2.72;0.70;;;20.50;47.60;;;;;;5050650;28;20044;-77
2021/12/02 10:25:57;;;;;;;1.45;0.80;;;20.50;47.30;;;;;;5067534;28;20048;-79
2021/12/02 10:28:25;;;;;;;3.80;0.60;;;20.50;47.60;;;;;;5085283;28;20471;-77
2021/12/02 10:31:03;;;;;;;4.45;0.80;;;20.40;47.50;;;;;;5086815;28;20040;-76
2021/12/02 10:33:35;;;;;;;;;;;20.40;47.30;;;;;;5085660;28;20044;-74
2021/12/02 10:36:02;;;;;;;3.92;0.85;;;20.40;47.20;;;;;;5069000;28;19920;-77
2021/12/02 10:38:39;;;;;;;1.35;0.60;;;20.40;47.50;;;;;;5065687;28;20035;-78
2021/12/02 10:41:17;;;;;;;1.25;0.88;;;20.40;47.30;;;;;;5068714;28;20430;-80
2021/12/02 10:44:24;;;;;;;2.28;0.80;;;20.30;47.40;;;;;;5086130;28;20048;-78
2021/12/02 10:46:57;;;;;;;3.22;0.80;;;20.30;47.30;;;;;;5075109;28;20064;-76
2021/12/02 10:49:24;;;;;;;3.75;0.60;;;20.30;47.40;;;;;;5066790;28;20076;-77
2021/12/02 10:51:52;;;;;;;1.48;0.70;;;20.40;47.40;;;;;;5078760;28;20044;-80
2021/12/02 10:54:20;;;;;;;0.70;0.45;;;20.40;47.30;;;;;;5083156;28;20139;-75
2021/12/02 10:56:50;;;;;;;;;;;20.40;47.20;;;;;;5072612;28;20041;-76
2021/12/02 10:59:41;;;;;;;0.65;0.55;;;20.40;47.00;;;;;;5047405;28;19924;-76
2021/12/02 11:02:17;;;;;;;2.05;0.70;;;20.40;47.10;;;;;;5083047;28;20093;-78
2021/12/02 11:04:50;;;;;;;1.55;0.65;;;20.40;47.10;;;;;;5039304;28;20532;-76
2021/12/02 11:07:25;;;;;;;1.85;0.80;;;20.40;47.10;;;;;;5081717;28;20084;-75
2021/12/02 11:09:52;;;;;;;6.53;0.90;;;20.40;47.10;;;;;;5064844;28;20040;-76
2021/12/02 11:12:30;;;;;;;1.25;0.60;;;20.40;47.20;;;;;;5083133;28;20036;-75
2021/12/02 11:15:09;;;;;;;2.60;0.60;;;20.40;47.20;;;;;;5058318;28;20063;-76
2021/12/02 11:17:41;;;;;;;3.33;0.88;;;20.40;47.10;;;;;;5078989;28;20643;-75
2021/12/02 11:20:09;;;;;;;4.30;0.80;;;20.40;47.10;;;;;;5066443;28;20044;-77
2021/12/02 11:22:35;;;;;;;2.17;0.60;;;20.40;47.20;;;;;;5071485;28;20071;-74
2021/12/02 11:25:02;;;;;;;2.95;0.80;;;20.40;47.20;;;;;;5049204;28;20078;-75
2021/12/02 11:27:35;;;;;;;6.70;0.80;;;20.40;47.30;;;;;;5083591;28;20099;-76
2021/12/02 11:30:04;;;;;;;2.60;0.88;;;20.40;47.40;;;;;;5075440;28;20032;-75
2021/12/02 11:32:39;;;;;;;3.22;0.50;;;20.40;47.60;;;;;;5081318;28;20096;-75
2021/12/02 11:35:21;;;;;;;4.20;0.80;;;20.30;47.40;;;;;;5066940;28;20040;-74
2021/12/02 11:37:58;;;;;;;3.65;0.70;;;20.30;47.50;;;;;;5079304;28;20036;-73
2021/12/02 11:40:27;;;;;;;2.35;0.70;;;20.30;47.50;;;;;;5063665;28;20035;-76
2021/12/02 11:42:54;;;;;;;3.90;0.95;;;20.30;47.50;;;;;;5083802;28;20119;-73
2021/12/02 11:45:22;;;;;;;2.30;0.60;;;20.30;47.60;;;;;;5042112;28;20098;-76
2021/12/02 11:47:49;;;;;;;3.78;0.82;;;20.30;47.60;;;;;;5080327;28;20155;-78
2021/12/02 11:50:16;;;;;;;2.75;0.90;;;20.30;47.60;;;;;;5059166;28;20664;-76
2021/12/02 11:52:43;;;;;;;2.33;0.60;;;20.30;48.30;;;;;;5066892;28;20407;-75
2021/12/02 11:55:13;;;;;;;1.85;0.70;;;20.30;47.50;;;;;;5065177;28;20047;-76
2021/12/02 11:57:39;;;;;;;0.90;0.55;;;20.30;47.40;;;;;;5058064;28;20047;-79
2021/12/02 12:00:10;;;;;;;2.58;0.70;;;20.40;47.50;;;;;;5058932;28;20055;-78
2021/12/02 12:02:37;;;;;;;7.95;1.00;;;20.40;47.40;;;;;;5063574;28;20391;-76
2021/12/02 12:05:07;;;;;;;3.10;0.75;;;20.40;47.30;;;;;;5079080;28;20043;-79
2021/12/02 12:07:48;;;;;;;3.03;0.80;;;20.40;47.20;;;;;;5057996;28;20047;-76
2021/12/02 12:10:20;;;;;;;2.17;0.98;;;20.40;47.10;;;;;;5066215;28;20059;-75
2021/12/02 12:12:46;;;;;;;3.25;0.90;;;20.40;47.20;;;;;;5065060;28;20040;-75
2021/12/02 12:15:48;;;;;;;4.38;0.80;;;20.40;47.20;;;;;;5063264;28;20170;-74
2021/12/02 12:18:43;;;;;;;3.63;0.90;;;20.40;47.30;;;;;;5013374;28;20057;-75
2021/12/02 12:21:12;;;;;;;3.78;0.70;;;20.40;47.50;;;;;;5016145;28;20057;-77
2021/12/02 12:23:47;;;;;;;2.97;0.77;;;20.30;47.40;;;;;;5031006;28;20076;-76
2021/12/02 12:26:27;;;;;;;6.55;1.00;;;20.30;47.50;;;;;;5031067;28;20041;-76
2021/12/02 12:29:09;;;;;;;1.35;0.90;;;20.30;47.60;;;;;;5021835;28;20053;-76
2021/12/02 12:31:47;;;;;;;1.92;0.70;;;20.30;47.70;;;;;;5029454;28;20047;-73
2021/12/02 12:34:34;;;;;;;3.03;0.65;;;20.30;47.80;;;;;;5032014;28;20049;-75
2021/12/02 12:40:13;;;;;;;2.08;0.90;;;20.30;47.70;;;;;;5013299;28;21096;-75
2021/12/02 12:43:02;;;;;;;3.13;0.95;;;20.30;47.60;;;;;;5038920;28;20057;-76
2021/12/02 12:45:46;;;;;;;6.00;0.85;;;20.30;47.80;;;;;;5034709;28;20530;-74
2021/12/02 12:48:18;;;;;;;2.75;0.82;;;20.30;47.90;;;;;;5031550;28;20041;-76
2021/12/02 12:51:14;;;;;;;3.65;0.82;;;20.30;48.00;;;;;;5033191;28;20087;-77
2021/12/02 12:53:43;;;;;;;2.63;1.10;;;20.30;47.80;;;;;;5030415;28;20090;-76
2021/12/02 12:56:12;;;;;;;2.42;0.90;;;20.40;48.10;;;;;;5033187;28;20051;-74
2021/12/02 12:58:39;;;;;;;;;;;20.40;48.10;;;;;;5034146;28;21013;-74
2021/12/02 13:01:20;;;;;;;3.05;1.15;;;20.30;47.80;;;;;;5037698;28;20023;-73
2021/12/02 13:04:07;;;;;;;2.60;0.82;;;20.30;47.90;;;;;;5030118;28;20042;-73
2021/12/02 13:06:56;;;;;;;3.50;0.87;;;20.30;47.80;;;;;;5037181;28;20048;-75
2021/12/02 13:09:39;;;;;;;7.57;1.27;;;20.30;47.80;;;;;;5039316;28;20057;-73
2021/12/02 13:12:05;;;;;;;2.38;1.00;;;20.30;47.80;;;;;;5036134;28;20124;-76
2021/12/02 13:14:32;;;;;;;2.05;0.90;;;20.30;47.80;;;;;;5017960;28;20535;-74
2021/12/02 13:17:40;;;;;;;2.88;0.88;;;20.30;47.70;;;;;;5049018;28;20072;-79
2021/12/02 13:20:22;;;;;;;2.97;1.00;;;20.40;47.70;;;;;;5057644;28;20066;-74
2021/12/02 13:23:16;;;;;;;2.40;0.90;;;20.40;47.50;;;;;;5059825;28;20076;-74
2021/12/02 13:26:04;;;;;;;2.63;1.10;;;20.40;47.30;;;;;;5056467;28;20037;-72
2021/12/02 13:28:39;;;;;;;10.37;1.20;;;20.40;47.50;;;;;;5060063;28;20041;-74
2021/12/02 13:31:11;;;;;;;3.47;1.30;;;20.40;47.50;;;;;;5043742;28;20040;-74
2021/12/02 13:33:40;;;;;;;3.08;1.05;;;20.40;47.50;;;;;;5056634;28;20047;-77
2021/12/02 13:36:09;;;;;;;3.95;1.17;;;20.40;47.50;;;;;;5057000;28;20053;-80
2021/12/02 13:38:35;;;;;;;2.67;1.20;;;20.40;47.40;;;;;;5042273;28;20037;-80
2021/12/02 13:41:18;;;;;;;2.50;1.00;;;20.40;47.40;;;;;;5059642;28;20040;-79
2021/12/02 13:44:12;;;;;;;1.83;1.10;;;20.40;47.20;;;;;;5047146;28;20044;-78
2021/12/02 13:46:44;;;;;;;2.38;1.20;;;20.40;47.20;;;;;;5053079;28;20115;-69
2021/12/02 13:49:13;;;;;;;2.50;1.15;;;20.40;47.20;;;;;;5058342;28;20483;-77
2021/12/02 13:54:36;;;;;;;4.63;1.20;;;20.40;47.20;;;;;;5053989;28;20063;-76
2021/12/02 13:57:31;;;;;;;4.15;1.20;;;20.30;47.20;;;;;;5055645;28;20063;-76
2021/12/02 13:59:57;;;;;;;4.13;1.10;;;20.30;47.00;;;;;;5041440;28;20058;-75
2021/12/02 14:02:24;;;;;;;3.97;0.90;;;20.30;47.10;;;;;;5061205;28;20499;-75
2021/12/02 14:04:52;;;;;;;3.03;1.17;;;20.30;47.10;;;;;;5063415;28;20572;-76
2021/12/02 14:07:22;;;;;;;5.22;1.25;;;20.30;47.10;;;;;;5056100;28;20052;-74
2021/12/02 14:09:59;;;;;;;4.30;1.40;;;20.30;47.10;;;;;;5052145;28;20051;-77
2021/12/02 14:12:46;;;;;;;3.55;1.08;;;20.30;47.00;;;;;;5064952;28;20051;-77
2021/12/02 14:15:23;;;;;;;3.65;1.33;;;20.30;47.10;;;;;;5060939;28;20484;-75
2021/12/02 14:17:54;;;;;;;1.77;1.10;;;20.30;47.10;;;;;;5078375;28;20091;-74
2021/12/02 14:20:31;;;;;;;4.72;1.10;;;20.30;47.10;;;;;;5067462;28;20054;-76
2021/12/02 14:22:57;;;;;;;2.03;1.17;;;20.30;47.10;;;;;;5061791;28;20399;-75
2021/12/02 14:25:27;;;;;;;4.47;1.25;;;20.30;47.20;;;;;;5063024;28;20043;-74
2021/12/02 14:28:14;;;;;;;1.77;1.05;;;20.30;47.20;;;;;;5049822;28;20052;-77
2021/12/02 14:30:44;;;;;;;6.95;1.20;;;20.20;47.10;;;;;;5065722;28;20102;-73
2021/12/02 14:33:12;;;;;;;4.53;1.00;;;20.20;47.20;;;;;;5059926;28;20546;-77
2021/12/02 14:35:47;;;;;;;2.88;1.08;;;20.20;47.20;;;;;;5074967;28;20039;-75
2021/12/02 14:38:20;;;;;;;2.22;0.90;;;20.20;47.20;;;;;;5063521;28;20407;-73
2021/12/02 14:40:47;;;;;;;2.05;1.10;;;20.20;47.20;;;;;;5065976;28;20060;-74
2021/12/02 14:43:15;;;;;;;2.03;1.10;;;20.20;47.20;;;;;;5065064;28;20115;-74
2021/12/02 14:45:41;;;;;;;3.70;1.27;;;20.20;47.20;;;;;;5065382;28;20063;-77
2021/12/02 14:48:22;;;;;;;2.00;1.10;;;20.20;47.20;;;;;;5082313;28;20795;-73
2021/12/02 14:50:59;;;;;;;5.55;0.93;;;20.20;47.20;;;;;;5085709;28;20044;-73
2021/12/02 14:53:30;;;;;;;2.05;1.13;;;20.20;47.20;;;;;;5064802;28;20081;-74
2021/12/02 14:55:58;;;;;;;3.42;1.00;;;20.10;47.10;;;;;;5050287;28;20059;-74
2021/12/02 14:58:26;;;;;;;2.13;1.00;;;20.10;47.10;;;;;;5059413;28;20036;-74
2021/12/02 15:01:09;;;;;;;2.83;1.15;;;20.10;47.20;;;;;;5063487;28;20898;-73
2021/12/02 15:03:35;;;;;;;4.00;1.10;;;20.10;47.10;;;;;;5064061;28;20047;-74
2021/12/02 15:06:01;;;;;;;2.15;1.10;;;20.10;47.10;;;;;;5082045;28;20123;-73
2021/12/02 15:08:32;;;;;;;6.93;1.30;;;20.10;47.10;;;;;;5060386;28;20146;-79
2021/12/02 15:10:58;;;;;;;1.13;0.93;;;20.10;47.20;;;;;;5064217;28;20036;-79
2021/12/02 15:13:23;;;;;;;3.30;1.17;;;20.10;47.30;;;;;;5081477;28;20044;-74
2021/12/02 15:15:54;;;;;;;4.20;1.13;;;20.10;47.40;;;;;;5062814;28;20044;-74
2021/12/02 15:18:23;;;;;;;5.47;1.23;;;20.10;47.50;;;;;;5062669;28;20147;-75
2021/12/02 15:20:51;;;;;;;3.92;1.40;;;20.10;47.60;;;;;;5077857;28;20603;-75
2021/12/02 15:23:28;;;;;;;3.28;1.05;;;20.10;47.80;;;;;;5043464;28;20040;-76
2021/12/02 15:26:00;;;;;;;2.58;1.17;;;20.10;48.00;;;;;;5049673;28;20058;-76
2021/12/02 15:28:29;;;;;;;5.35;1.25;;;20.10;48.10;;;;;;5078531;28;20046;-74
2021/12/02 15:31:02;;;;;;;6.28;1.48;;;20.10;48.10;;;;;;5080687;28;20044;-78
2021/12/02 15:33:32;;;;;;;2.20;1.17;;;20.10;48.20;;;;;;5078962;28;20083;-77
2021/12/02 15:36:01;;;;;;;4.55;0.80;;;20.10;48.30;;;;;;5063140;28;20090;-78
2021/12/02 15:38:28;;;;;;;3.22;1.20;;;20.10;48.20;;;;;;5063010;28;20094;-76
2021/12/02 15:40:55;;;;;;;2.55;1.00;;;20.20;49.00;;;;;;5064409;28;20048;-77
2021/12/02 15:43:32;;;;;;;2.42;1.10;;;20.10;48.20;;;;;;5059992;28;20068;-78
2021/12/02 15:46:00;;;;;;;1.90;1.10;;;20.20;48.30;;;;;;5058268;28;20430;-76
2021/12/02 15:48:27;;;;;;;2.65;1.20;;;20.20;48.30;;;;;;5060602;28;20052;-75
2021/12/02 15:50:55;;;;;;;2.15;1.10;;;20.20;48.30;;;;;;5064304;28;20141;-76
2021/12/02 15:53:21;;;;;;;2.57;1.20;;;20.20;48.30;;;;;;5069308;28;20039;-77
2021/12/02 15:55:49;;;;;;;4.30;1.20;;;20.20;48.20;;;;;;5051044;28;20702;-78
2021/12/02 15:58:16;;;;;;;3.03;0.88;;;20.10;48.20;;;;;;5050457;28;20052;-76
2021/12/02 16:00:50;;;;;;;1.75;0.80;;;20.20;48.20;;;;;;5061756;28;20059;-76
2021/12/02 16:03:21;;;;;;;4.60;0.90;;;20.20;48.20;;;;;;5064461;28;20036;-72
2021/12/02 16:14:06;;;;;;;1.10;0.93;;;20.20;48.10;;;;;;5018084;28;20063;-72
2021/12/02 16:16:38;;;;;;;3.72;1.10;;;20.10;48.00;;;;;;5062810;28;20060;-71
2021/12/02 16:19:03;;;;;;;3.22;0.98;;;20.20;48.10;;;;;;5077965;28;20514;-72
2021/12/02 16:21:29;;;;;;;1.90;0.90;;;20.20;48.10;;;;;;5079607;28;20043;-72
2021/12/02 16:23:55;;;;;;;2.58;0.90;;;20.10;48.00;;;;;;5045734;28;20127;-71
2021/12/02 16:26:21;;;;;;;3.25;0.98;;;20.10;47.90;;;;;;5082555;28;20564;-72
2021/12/02 16:28:47;;;;;;;3.00;0.88;;;20.10;47.80;;;;;;5068062;28;20051;-72
2021/12/02 16:31:13;;;;;;;4.72;1.00;;;20.10;47.80;;;;;;5063988;28;20048;-71
2021/12/02 16:33:42;;;;;;;3.10;0.88;;;20.10;47.80;;;;;;5077154;28;20032;-71
2021/12/02 16:36:12;;;;;;;2.42;0.82;;;20.10;47.80;;;;;;5059521;28;20405;-72
2021/12/02 16:38:51;;;;;;;2.08;0.80;;;20.10;47.80;;;;;;5055271;28;20047;-72
2021/12/02 16:41:17;;;;;;;2.47;0.70;;;20.10;47.80;;;;;;5061954;28;20047;-74
2021/12/02 16:43:42;;;;;;;1.42;0.68;;;20.10;47.80;;;;;;5068640;28;20040;-73
2021/12/02 16:46:08;;;;;;;3.05;1.10;;;20.10;47.80;;;;;;5068982;28;20032;-75
2021/12/02 16:48:34;;;;;;;2.08;0.80;;;20.10;47.90;;;;;;5082970;28;20120;-73
2021/12/02 16:50:59;;;;;;;3.22;0.73;;;20.10;47.90;;;;;;5077988;28;20036;-75
2021/12/02 16:53:25;;;;;;;1.15;0.75;;;20.10;47.90;;;;;;5066750;28;20139;-73
2021/12/02 16:55:51;;;;;;;3.55;0.80;;;20.10;47.80;;;;;;5062414;28;20047;-74
2021/12/02 16:58:17;;;;;;;1.70;0.88;;;20.10;47.70;;;;;;5062895;28;20052;-71
2021/12/02 17:00:45;;;;;;;3.05;0.80;;;20.10;47.60;;;;;;5063701;28;20048;-73
2021/12/02 17:03:11;;;;;;;2.17;0.80;;;20.10;47.60;;;;;;5079725;28;20059;-72
2021/12/02 17:05:40;;;;;;;2.10;0.73;;;20.00;47.50;;;;;;5078784;28;20660;-72
2021/12/02 17:08:06;;;;;;;2.38;0.77;;;20.00;47.40;;;;;;5065499;28;20044;-72
2021/12/02 17:10:31;;;;;;;10.38;2.38;;;20.00;47.40;;;;;;5070431;28;20040;-73
2021/12/02 17:13:03;;;;;;;24.23;7.93;;;20.00;47.30;;;;;;5069271;28;20429;-72
2021/12/02 17:15:32;;;;;;;23.15;8.18;;;20.00;48.40;;;;;;5082328;28;20411;-72
2021/12/02 17:18:00;;;;;;;49.15;12.50;;;20.00;47.80;;;;;;5041751;28;20057;-73
2021/12/02 17:20:31;;;;;;;34.25;10.40;;;20.00;48.40;;;;;;5041775;28;20043;-73
2021/12/02 17:23:01;;;;;;;45.08;11.82;;;20.00;48.60;;;;;;5040549;28;20037;-73
2021/12/02 17:25:27;;;;;;;39.25;12.32;;;20.10;48.90;;;;;;5040910;28;20063;-72
2021/12/02 17:27:53;;;;;;;30.77;11.30;;;20.10;49.30;;;;;;5038619;28;20051;-72
2021/12/02 17:30:24;;;;;;;35.90;10.77;;;20.10;49.80;;;;;;5036470;28;20048;-74
2021/12/02 17:32:50;;;;;;;35.58;10.85;;;20.10;50.50;;;;;;5037880;28;20555;-73
2021/12/02 17:35:17;;;;;;;36.35;11.07;;;20.10;50.90;;;;;;5036647;28;20040;-72
2021/12/02 17:37:44;;;;;;;33.67;10.85;;;20.10;51.30;;;;;;5035975;28;20524;-73
2021/12/02 17:40:15;;;;;;;31.67;9.93;;;20.10;51.40;;;;;;5037416;28;20052;-74
2021/12/02 17:42:42;;;;;;;26.52;8.73;;;20.10;51.50;;;;;;5040100;28;20033;-73
2021/12/02 17:45:09;;;;;;;27.95;9.18;;;20.10;51.40;;;;;;5042487;28;20044;-72
2021/12/02 17:47:35;;;;;;;30.38;8.40;;;20.10;51.60;;;;;;5042410;28;20076;-72
2021/12/02 17:50:06;;;;;;;28.80;8.85;;;20.10;51.50;;;;;;5038453;28;20072;-72
2021/12/02 17:52:31;;;;;;;21.30;7.95;;;20.10;51.50;;;;;;5038446;28;20053;-73
2021/12/02 17:54:58;;;;;;;26.40;7.85;;;20.10;51.30;;;;;;5036967;28;20060;-71
2021/12/02 17:57:24;;;;;;;22.55;7.82;;;20.10;51.20;;;;;;5043770;28;20570;-73
2021/12/02 17:59:50;;;;;;;21.95;7.03;;;20.10;51.20;;;;;;5036775;28;20049;-71
2021/12/02 18:02:17;;;;;;;19.83;6.72;;;20.10;51.10;;;;;;5038378;28;21054;-72
2021/12/02 18:04:43;;;;;;;19.10;6.78;;;20.20;51.00;;;;;;5021633;28;20080;-71
2021/12/02 18:07:09;;;;;;;19.90;6.40;;;20.10;50.90;;;;;;5040358;28;20045;-73
2021/12/02 18:09:36;;;;;;;21.98;6.00;;;20.20;50.80;;;;;;5041417;28;20037;-73
2021/12/02 18:12:01;;;;;;;18.73;6.05;;;20.10;50.70;;;;;;5021089;28;20029;-73
2021/12/02 18:14:27;;;;;;;17.52;5.70;;;20.20;50.60;;;;;;5037443;28;20382;-69
2021/12/02 18:16:53;;;;;;;16.08;6.00;;;20.20;50.50;;;;;;5056808;28;20055;-71
2021/12/02 18:19:18;;;;;;;16.58;5.15;;;20.20;50.30;;;;;;5063000;28;20046;-72
2021/12/02 18:21:44;;;;;;;16.08;5.47;;;20.20;50.30;;;;;;5074292;28;20052;-73
2021/12/02 18:24:10;;;;;;;18.42;5.53;;;20.20;50.10;;;;;;5062294;28;20411;-73
2021/12/02 18:26:36;;;;;;;16.45;5.30;;;20.20;50.10;;;;;;5069109;28;20093;-76
2021/12/02 18:29:03;;;;;;;15.32;4.85;;;20.20;49.80;;;;;;5086560;28;20044;-72
2021/12/02 18:31:29;;;;;;;17.40;4.97;;;20.20;49.60;;;;;;5062568;28;20038;-73
2021/12/02 18:33:58;;;;;;;13.43;4.53;;;20.20;49.40;;;;;;5059421;28;20255;-71
2021/12/02 18:36:25;;;;;;;14.90;4.68;;;20.20;49.30;;;;;;5065508;28;20044;-71
2021/12/02 18:38:51;;;;;;;12.02;4.45;;;20.20;49.20;;;;;;5058869;28;20040;-72
2021/12/02 18:41:16;;;;;;;12.10;3.97;;;20.20;49.20;;;;;;5052710;28;20048;-72
2021/12/02 18:43:43;;;;;;;14.13;4.50;;;20.20;49.10;;;;;;5078648;28;20039;-71
2021/12/02 18:46:08;;;;;;;11.90;3.88;;;20.20;49.00;;;;;;5070413;28;20048;-72
2021/12/02 18:48:34;;;;;;;12.10;3.90;;;20.20;49.00;;;;;;5068669;28;20052;-77
2021/12/02 18:51:01;;;;;;;10.32;4.10;;;20.20;49.10;;;;;;5064895;28;20047;-75
2021/12/02 18:53:28;;;;;;;10.27;3.92;;;20.20;49.10;;;;;;5066533;28;20086;-75
2021/12/02 18:55:55;;;;;;;13.18;3.85;;;20.20;49.10;;;;;;5047896;28;20633;-77
2021/12/02 18:58:20;;;;;;;10.40;3.58;;;20.20;49.20;;;;;;5061059;28;20047;-75
2021/12/02 19:00:46;;;;;;;10.95;3.40;;;20.30;49.10;;;;;;5077233;28;20207;-73
2021/12/02 19:03:12;;;;;;;11.70;4.35;;;20.20;49.00;;;;;;5079830;28;20036;-72
2021/12/02 19:05:41;;;;;;;11.50;3.85;;;20.30;49.00;;;;;;5078545;28;20040;-72
2021/12/02 19:08:25;;;;;;;7.85;3.03;;;20.30;48.90;;;;;;5054712;28;20040;-70
2021/12/02 19:27:18;;;;;;;11.25;3.40;;;20.30;48.50;;;;;;5063074;28;20048;-74
2021/12/02 19:29:44;;;;;;;7.03;2.90;;;20.30;48.50;;;;;;5060328;28;20508;-70
2021/12/02 19:32:10;;;;;;;11.80;3.33;;;20.40;48.50;;;;;;5078578;28;20032;-71
2021/12/02 19:34:36;;;;;;;8.43;3.13;;;20.30;48.40;;;;;;5061420;28;20044;-74
2021/12/02 19:37:01;;;;;;;11.85;2.83;;;20.40;48.50;;;;;;5064079;28;20074;-73
2021/12/02 19:39:27;;;;;;;11.23;3.08;;;20.40;49.20;;;;;;5080924;28;20074;-74
2021/12/02 19:41:53;;;;;;;8.30;2.70;;;20.40;48.40;;;;;;5065682;28;20711;-71
2021/12/02 19:44:18;;;;;;;7.30;2.53;;;20.40;48.40;;;;;;5078030;28;20039;-73
2021/12/02 19:46:46;;;;;;;6.68;2.63;;;20.40;48.30;;;;;;5075987;28;20032;-74
2021/12/02 19:49:12;;;;;;;7.53;2.63;;;20.40;48.30;;;;;;5065456;28;20094;-72
2021/12/02 19:51:37;;;;;;;6.50;2.70;;;20.40;48.20;;;;;;5066021;28;20492;-71
2021/12/02 19:54:04;;;;;;;6.03;2.50;;;20.40;48.20;;;;;;5079008;28;20125;-71
2021/12/02 19:56:30;;;;;;;7.40;2.50;;;20.40;48.20;;;;;;5074024;28;20534;-71
2021/12/02 19:58:56;;;;;;;6.13;2.70;;;20.40;48.20;;;;;;5060871;28;20804;-71
2021/12/02 20:01:22;;;;;;;8.63;3.00;;;20.40;48.10;;;;;;5062892;28;20093;-71
2021/12/02 20:03:48;;;;;;;8.30;3.08;;;20.40;48.10;;;;;;5044680;28;20075;-71
2021/12/02 20:06:14;;;;;;;6.38;2.80;;;20.40;48.00;;;;;;5076378;28;20044;-71
2021/12/02 20:08:41;;;;;;;7.97;2.75;;;20.40;48.00;;;;;;5079248;28;20047;-71
2021/12/02 20:11:07;;;;;;;6.22;2.42;;;20.40;48.00;;;;;;5061225;28;20028;-71
2021/12/02 20:13:33;;;;;;;6.25;2.50;;;20.40;47.90;;;;;;5063555;28;20380;-71
2021/12/02 20:18:37;;;;;;;8.02;2.90;;;20.40;47.90;;;;;;5056430;28;20040;-70
2021/12/02 20:21:03;;;;;;;5.30;2.40;;;20.40;47.80;;;;;;5077399;28;20037;-71
2021/12/02 20:23:30;;;;;;;6.88;2.40;;;20.40;48.50;;;;;;5072959;28;20046;-71
2021/12/02 20:25:56;;;;;;;4.78;2.17;;;20.40;47.70;;;;;;5066159;28;20109;-70
2021/12/02 20:28:24;;;;;;;7.95;2.50;;;20.40;48.50;;;;;;5077123;28;20044;-71
2021/12/02 20:30:51;;;;;;;;;;;20.40;47.70;;;;;;5079582;28;20044;-71
2021/12/02 20:33:17;;;;;;;5.68;2.35;;;20.40;47.60;;;;;;5065324;28;19934;-71
2021/12/02 20:35:42;;;;;;;6.80;2.47;;;20.40;47.70;;;;;;5058339;28;20044;-71
2021/12/02 20:38:08;;;;;;;4.95;2.00;;;20.40;47.60;;;;;;5065535;28;20044;-71
2021/12/02 20:40:33;;;;;;;5.03;2.28;;;20.40;47.60;;;;;;5065362;28;20041;-70
2021/12/02 20:42:59;;;;;;;5.97;2.00;;;20.40;48.40;;;;;;5063032;28;20068;-71
2021/12/02 20:45:30;;;;;;;4.53;2.08;;;20.40;47.60;;;;;;5059909;28;20046;-71
2021/12/02 20:48:04;;;;;;;4.18;2.20;;;20.40;47.60;;;;;;5069398;28;20047;-71
2021/12/02 20:50:31;;;;;;;7.57;2.40;;;20.40;47.50;;;;;;5075904;28;20032;-71
2021/12/02 20:52:58;;;;;;;5.82;2.50;;;20.40;47.60;;;;;;5078443;28;20048;-71
2021/12/02 20:55:29;;;;;;;6.57;2.35;;;20.50;47.60;;;;;;5066282;28;20040;-71
2021/12/02 20:57:55;;;;;;;6.22;2.10;;;20.40;47.50;;;;;;5077124;28;20051;-72
2021/12/02 21:00:24;;;;;;;7.30;2.10;;;20.50;47.60;;;;;;5060280;28;20048;-70
2021/12/02 21:02:51;;;;;;;6.20;1.98;;;20.50;47.60;;;;;;5078056;28;20079;-73
2021/12/02 21:05:17;;;;;;;9.15;2.00;;;20.50;47.60;;;;;;5064464;28;20673;-72
2021/12/02 21:07:43;;;;;;;4.60;2.00;;;20.50;47.60;;;;;;5049127;28;20044;-70
2021/12/02 21:10:09;;;;;;;7.60;1.73;;;20.50;47.60;;;;;;5068209;28;20075;-73
2021/12/02 21:12:36;;;;;;;3.20;1.73;;;20.50;47.60;;;;;;5066187;28;20041;-74
2021/12/02 21:15:09;;;;;;;4.10;1.95;;;20.50;47.50;;;;;;5062019;28;20048;-74
2021/12/02 21:17:39;;;;;;;6.43;1.88;;;20.60;47.60;;;;;;5077022;28;20865;-74
2021/12/02 21:20:07;;;;;;;4.45;1.83;;;20.60;47.60;;;;;;5066365;28;20048;-74
2021/12/02 21:22:32;;;;;;;8.05;1.52;;;20.60;47.50;;;;;;5062093;28;20080;-75
2021/12/02 21:24:58;;;;;;;6.45;1.77;;;20.60;47.50;;;;;;5069334;28;20443;-70
2021/12/02 21:27:24;;;;;;;7.78;1.65;;;20.60;47.40;;;;;;5064852;28;20036;-72
2021/12/02 21:29:52;;;;;;;4.47;1.70;;;20.60;47.40;;;;;;5065823;28;20047;-71
2021/12/02 21:32:18;;;;;;;3.58;1.70;;;20.70;47.30;;;;;;5073253;28;20780;-70
2021/12/02 21:34:48;;;;;;;7.10;1.55;;;20.70;47.30;;;;;;5081391;28;20063;-71
2021/12/02 21:37:19;;;;;;;4.47;1.55;;;20.70;47.30;;;;;;5082808;28;20040;-71
2021/12/02 21:39:50;;;;;;;5.68;1.80;;;20.70;47.30;;;;;;5076800;28;20040;-72
2021/12/02 21:42:16;;;;;;;4.78;1.80;;;20.70;47.30;;;;;;5084764;28;20044;-72
2021/12/02 21:44:44;;;;;;;3.47;1.73;;;20.70;47.20;;;;;;5074868;28;20101;-71
2021/12/02 21:47:10;;;;;;;5.57;1.60;;;20.70;47.10;;;;;;5058592;28;20062;-68
2021/12/02 21:49:36;;;;;;;5.93;2.05;;;20.70;47.10;;;;;;5071112;28;20058;-70
2021/12/02 21:52:02;;;;;;;4.50;1.60;;;20.70;47.10;;;;;;5054492;28;20048;-70